createdAt,value
2023-02-08T00:00:16.414Z,101146.50
2023-02-08T00:03:02.647Z,101101.69
2023-02-08T00:05:49.240Z,101134.84
2023-02-08T00:08:37.192Z,101107.50
2023-02-08T00:11:23.860Z,101106.03
2023-02-08T00:14:10.041Z,101116.09
2023-02-08T00:16:56.341Z,101086.88
2023-02-08T00:19:42.624Z,101086.28
2023-02-08T00:22:28.980Z,101095.63
2023-02-08T00:25:15.576Z,101106.31
2023-02-08T00:28:04.026Z,101062.44
2023-02-08T00:30:51.239Z,101098.59
2023-02-08T00:33:38.431Z,101098.31
2023-02-08T00:36:25.129Z,101111.66
2023-02-08T00:39:11.435Z,101091.34
2023-02-08T00:41:57.867Z,101081.41
2023-02-08T00:44:44.047Z,101063.16
2023-02-08T00:47:30.256Z,101115.19
2023-02-08T00:50:16.430Z,101090.28
2023-02-08T00:53:03.253Z,101131.22
2023-02-08T00:55:54.145Z,101123.47
2023-02-08T00:58:41.014Z,101096.53
2023-02-08T01:01:27.472Z,101120.06
2023-02-08T01:04:13.852Z,101126.63
2023-02-08T01:07:00.065Z,101123.47
2023-02-08T01:09:46.342Z,101127.63
2023-02-08T01:12:32.849Z,101121.09
2023-02-08T01:15:19.408Z,101097.72
2023-02-08T01:18:05.891Z,101085.84
2023-02-08T01:20:52.428Z,101107.78
2023-02-08T01:23:39.921Z,101107.19
2023-02-08T01:26:26.358Z,101115.22
2023-02-08T01:29:13.032Z,101128.53
2023-02-08T01:31:59.732Z,101100.63
2023-02-08T01:34:48.805Z,101086.53
2023-02-08T01:37:35.473Z,101091.72
2023-02-08T01:40:22.470Z,101098.25
2023-02-08T01:43:55.065Z,101113.09
2023-02-08T01:46:43.463Z,101105.28
2023-02-08T01:49:36.942Z,101098.88
2023-02-08T01:52:27.011Z,101053.88
2023-02-08T01:55:26.606Z,101052.13
2023-02-08T01:58:14.440Z,101096.13
2023-02-08T02:01:03.199Z,101057.97
2023-02-08T02:03:49.694Z,101076.59
2023-02-08T02:06:41.635Z,101056.19
2023-02-08T02:09:33.159Z,101058.88
2023-02-08T02:12:21.122Z,101082.25
2023-02-08T02:15:09.510Z,101038.41
2023-02-08T02:17:55.845Z,101065.91
2023-02-08T02:21:19.521Z,101063.44
2023-02-08T02:24:34.731Z,101063.56
2023-02-08T02:27:40.024Z,101058.53
2023-02-08T02:31:04.658Z,101034.84
2023-02-08T02:33:56.881Z,101060.66
2023-02-08T02:36:55.862Z,101069.56
2023-02-08T02:40:10.753Z,101039.28
2023-02-08T02:43:24.532Z,101062.56
2023-02-08T02:46:21.809Z,101044.00
2023-02-08T02:49:37.621Z,101071.56
2023-02-08T02:52:33.619Z,101003.94
2023-02-08T02:55:25.452Z,101067.59
2023-02-08T02:58:16.515Z,101022.97
2023-02-08T03:01:03.005Z,101064.16
2023-02-08T03:03:50.870Z,101067.72
2023-02-08T03:06:43.276Z,101070.06
2023-02-08T03:09:50.654Z,101064.72
2023-02-08T03:13:02.127Z,101043.59
2023-02-08T03:15:54.542Z,101073.56
2023-02-08T03:18:47.067Z,101067.78
2023-02-08T03:21:58.519Z,101070.75
2023-02-08T03:25:02.662Z,101073.88
2023-02-08T03:28:04.405Z,101066.16
2023-02-08T03:30:59.785Z,101065.75
2023-02-08T03:33:56.424Z,101058.53
2023-02-08T03:36:47.345Z,100978.25
2023-02-08T03:39:36.221Z,101072.16
2023-02-08T03:42:27.020Z,101038.44
2023-02-08T03:45:20.486Z,101078.59
2023-02-08T03:48:10.981Z,101074.75
2023-02-08T03:51:01.724Z,101039.16
2023-02-08T03:53:49.348Z,101046.03
2023-02-08T03:56:44.655Z,101059.41
2023-02-08T03:59:39.629Z,101050.59
2023-02-08T04:02:31.497Z,101042.06
2023-02-08T04:05:18.917Z,101080.50
2023-02-08T04:08:07.555Z,101050.16
2023-02-08T04:10:54.252Z,101070.06
2023-02-08T04:13:40.660Z,101069.47
2023-02-08T04:16:27.239Z,100982.41
2023-02-08T04:19:13.561Z,101062.28
2023-02-08T04:22:00.157Z,101032.00
2023-02-08T04:24:46.537Z,101046.88
2023-02-08T04:27:32.768Z,101058.84
2023-02-08T04:30:20.755Z,101050.31
2023-02-08T04:33:07.074Z,101060.34
2023-02-08T04:35:53.464Z,101072.06
2023-02-08T04:38:39.793Z,101039.69
2023-02-08T04:41:26.142Z,101052.34
2023-02-08T04:44:12.490Z,101034.44
2023-02-08T04:46:59.952Z,101052.47
2023-02-08T04:49:46.193Z,101043.50
2023-02-08T04:52:32.354Z,101054.53
2023-02-08T04:55:18.746Z,101024.75
2023-02-08T04:58:05.543Z,101040.91
2023-02-08T05:00:51.741Z,101051.63
2023-02-08T05:03:37.940Z,101007.78
2023-02-08T05:06:24.155Z,100988.75
2023-02-08T05:09:10.705Z,100983.97
2023-02-08T05:11:57.254Z,101022.22
2023-02-08T05:14:43.375Z,101012.59
2023-02-08T05:17:29.585Z,101038.25
2023-02-08T05:20:16.250Z,101022.22
2023-02-08T05:23:02.634Z,101002.09
2023-02-08T05:25:49.311Z,101035.63
2023-02-08T05:28:36.341Z,100999.38
2023-02-08T05:31:24.720Z,101046.22
2023-02-08T05:34:12.273Z,101013.31
2023-02-08T05:36:58.967Z,100988.38
2023-02-08T05:39:45.643Z,101048.84
2023-02-08T05:42:31.744Z,101025.44
2023-02-08T05:45:18.322Z,100997.97
2023-02-08T05:48:04.430Z,101004.91
2023-02-08T05:50:51.200Z,101052.75
2023-02-08T05:53:37.710Z,101012.13
2023-02-08T05:56:24.079Z,101011.63
2023-02-08T05:59:10.793Z,100963.50
2023-02-08T06:02:00.619Z,101053.50
2023-02-08T06:04:47.270Z,101004.88
2023-02-08T06:07:33.906Z,101017.63
2023-02-08T06:10:20.229Z,101037.69
2023-02-08T06:13:06.747Z,101052.66
2023-02-08T06:15:52.972Z,101056.69
2023-02-08T06:18:39.456Z,101029.09
2023-02-08T06:21:26.022Z,101034.47
2023-02-08T06:24:13.638Z,101056.34
2023-02-08T06:27:00.200Z,101065.72
2023-02-08T06:29:47.072Z,101066.16
2023-02-08T06:32:33.464Z,101045.31
2023-02-08T06:35:20.246Z,101033.06
2023-02-08T06:38:06.938Z,101039.41
2023-02-08T06:40:53.226Z,101032.75
2023-02-08T06:43:40.772Z,101033.28
2023-02-08T06:46:27.460Z,101052.09
2023-02-08T06:49:13.715Z,101054.59
2023-02-08T06:52:00.372Z,101046.03
2023-02-08T06:54:46.905Z,101037.63
2023-02-08T06:57:33.450Z,101067.13
2023-02-08T07:00:20.029Z,101055.25
2023-02-08T07:03:06.382Z,101077.00
2023-02-08T07:06:04.587Z,101046.41
2023-02-08T07:08:51.348Z,101062.66
2023-02-08T07:11:37.946Z,101083.25
2023-02-08T07:14:24.488Z,101096.09
2023-02-08T07:17:12.689Z,101089.44
2023-02-08T07:19:59.104Z,101080.03
2023-02-08T07:22:45.572Z,101060.53
2023-02-08T07:25:32.223Z,101082.78
2023-02-08T07:28:18.387Z,101016.81
2023-02-08T07:31:10.269Z,101091.88
2023-02-08T07:33:56.629Z,101052.47
2023-02-08T07:36:42.924Z,101060.81
2023-02-08T07:39:31.278Z,101014.63
2023-02-08T07:42:17.975Z,101079.38
2023-02-08T07:45:14.774Z,101086.53
2023-02-08T07:48:00.968Z,101085.84
2023-02-08T07:50:47.609Z,101045.81
2023-02-08T07:53:34.686Z,101051.47
2023-02-08T07:56:21.254Z,101080.22
2023-02-08T07:59:07.729Z,101057.09
2023-02-08T08:01:54.002Z,101063.34
2023-02-08T08:04:40.350Z,101066.00
2023-02-08T08:07:26.874Z,101046.25
2023-02-08T08:10:13.569Z,101062.69
2023-02-08T08:12:59.978Z,101009.31
2023-02-08T08:15:47.478Z,101051.03
2023-02-08T08:18:33.872Z,101065.00
2023-02-08T08:21:20.150Z,101053.16
2023-02-08T08:24:07.031Z,101047.44
2023-02-08T08:26:53.591Z,101021.31
2023-02-08T08:29:39.924Z,101036.91
2023-02-08T08:32:26.536Z,101013.50
2023-02-08T08:35:13.053Z,101021.19
2023-02-08T08:37:59.435Z,101058.19
2023-02-08T08:40:45.796Z,101039.91
2023-02-08T08:43:32.372Z,101051.38
2023-02-08T08:46:19.121Z,101016.13
2023-02-08T08:49:05.835Z,101034.88
2023-02-08T08:51:52.570Z,101043.34
2023-02-08T08:54:39.428Z,101040.44
2023-02-08T08:57:26.293Z,101043.38
2023-02-08T09:00:13.275Z,101011.25
2023-02-08T09:02:59.982Z,100966.53
2023-02-08T09:05:47.185Z,101023.84
2023-02-08T09:08:33.833Z,101042.75
2023-02-08T09:11:20.196Z,101028.19
2023-02-08T09:14:06.686Z,101046.47
2023-02-08T09:16:53.362Z,101030.38
2023-02-08T09:19:39.931Z,101028.63
2023-02-08T09:22:26.593Z,101029.59
2023-02-08T09:25:12.946Z,101021.00
2023-02-08T09:27:59.517Z,101046.06
2023-02-08T09:30:46.050Z,101051.38
2023-02-08T09:33:32.564Z,101034.88
2023-02-08T09:36:20.699Z,100998.66
2023-02-08T09:39:20.159Z,101039.00
2023-02-08T09:42:31.689Z,101038.06
2023-02-08T09:45:41.347Z,101039.22
2023-02-08T09:48:38.574Z,101028.00
2023-02-08T09:51:24.953Z,101022.88
2023-02-08T09:54:33.752Z,101030.53
2023-02-08T09:57:24.232Z,100983.47
2023-02-08T10:00:20.079Z,101006.66
2023-02-08T10:03:21.248Z,100987.34
2023-02-08T10:06:11.591Z,101013.28
2023-02-08T10:09:04.350Z,101005.13
2023-02-08T10:12:08.817Z,101035.03
2023-02-08T10:14:58.995Z,101022.09
2023-02-08T10:18:04.092Z,101033.72
2023-02-08T10:20:50.770Z,101022.25
2023-02-08T10:23:49.120Z,101017.00
2023-02-08T10:26:55.796Z,101013.75
2023-02-08T10:30:15.457Z,101007.00
2023-02-08T10:33:24.942Z,101006.47
2023-02-08T10:36:16.713Z,100954.47
2023-02-08T10:39:14.381Z,100959.03
2023-02-08T10:42:00.947Z,100949.47
2023-02-08T10:45:23.860Z,100983.97
2023-02-08T10:48:20.188Z,100945.00
2023-02-08T10:51:12.148Z,100974.25
2023-02-08T10:53:58.784Z,100989.41
2023-02-08T10:57:03.007Z,100979.84
2023-02-08T11:00:01.069Z,100939.53
2023-02-08T11:02:49.169Z,100980.22
2023-02-08T11:05:37.303Z,100927.31
2023-02-08T11:08:26.776Z,100912.63
2023-02-08T11:11:12.995Z,100958.50
2023-02-08T11:14:10.048Z,100922.94
2023-02-08T11:16:57.446Z,100937.38
2023-02-08T11:19:46.306Z,100936.88
2023-02-08T11:22:34.456Z,100921.25
2023-02-08T11:25:36.058Z,100913.56
2023-02-08T11:28:30.840Z,100934.06
2023-02-08T11:31:20.567Z,100932.00
2023-02-08T11:34:06.909Z,100928.75
2023-02-08T11:36:53.494Z,100901.88
2023-02-08T11:39:44.341Z,100900.28
2023-02-08T11:42:43.077Z,100914.53
2023-02-08T11:45:31.166Z,100911.50
2023-02-08T11:48:38.228Z,100910.38
2023-02-08T11:51:28.709Z,100898.47
2023-02-08T11:54:36.398Z,100894.38
2023-02-08T11:57:25.819Z,100893.03
2023-02-08T12:00:30.935Z,100889.66
2023-02-08T12:03:27.336Z,100837.72
2023-02-08T12:06:26.108Z,100886.53
2023-02-08T12:09:18.471Z,100880.94
2023-02-08T12:12:41.016Z,100885.53
2023-02-08T12:15:27.612Z,100878.03
2023-02-08T12:18:36.562Z,100882.44
2023-02-08T12:21:26.604Z,100872.72
2023-02-08T12:24:35.449Z,100874.44
2023-02-08T12:27:37.275Z,100830.34
2023-02-08T12:30:34.097Z,100859.09
2023-02-08T12:33:39.391Z,100823.13
2023-02-08T12:37:17.692Z,100833.94
2023-02-08T12:40:35.208Z,100808.81
2023-02-08T12:43:58.431Z,100808.25
2023-02-08T12:47:00.286Z,100826.69
2023-02-08T12:50:08.211Z,100770.47
2023-02-08T12:53:03.252Z,100819.50
2023-02-08T12:55:51.986Z,100789.41
2023-02-08T12:58:59.095Z,100808.75
2023-02-08T13:01:51.495Z,100772.09
2023-02-08T13:04:43.623Z,100792.13
2023-02-08T13:07:34.934Z,100776.59
2023-02-08T13:10:41.018Z,100766.66
2023-02-08T13:13:36.666Z,100754.66
2023-02-08T13:16:34.698Z,100758.50
2023-02-08T13:19:41.964Z,100776.34
2023-02-08T13:22:37.445Z,100767.75
2023-02-08T13:25:30.295Z,100769.69
2023-02-08T13:28:23.014Z,100710.16
2023-02-08T13:31:17.527Z,100700.09
2023-02-08T13:34:15.150Z,100698.63
2023-02-08T13:37:24.589Z,100755.91
2023-02-08T13:40:29.075Z,100721.34
2023-02-08T13:43:38.345Z,100743.19
2023-02-08T13:46:29.166Z,100721.00
2023-02-08T13:49:41.676Z,100738.91
2023-02-08T13:52:46.826Z,100744.34
2023-02-08T13:55:34.355Z,100746.91
2023-02-08T13:59:00.622Z,100706.56
2023-02-08T14:02:12.897Z,100695.16
2023-02-08T14:05:31.259Z,100735.75
2023-02-08T14:08:40.723Z,100648.06
2023-02-08T14:11:51.018Z,100701.91
2023-02-08T14:14:38.477Z,100711.66
2023-02-08T14:17:29.458Z,100753.06
2023-02-08T14:20:28.795Z,100743.59
2023-02-08T14:23:27.336Z,100742.56
2023-02-08T14:26:23.954Z,100732.88
2023-02-08T14:29:23.202Z,100745.19
2023-02-08T14:32:25.636Z,100744.72
2023-02-08T14:35:15.000Z,100747.53
2023-02-08T14:38:20.147Z,100733.22
2023-02-08T14:41:08.332Z,100742.25
2023-02-08T14:43:54.689Z,100725.72
2023-02-08T14:46:43.000Z,100732.69
2023-02-08T14:49:37.468Z,100677.88
2023-02-08T14:52:25.482Z,100692.84
2023-02-08T14:55:26.557Z,100667.56
2023-02-08T14:58:26.104Z,100693.09
2023-02-08T15:01:18.880Z,100654.88
2023-02-08T15:04:05.974Z,100708.50
2023-02-08T15:07:10.729Z,100722.69
2023-02-08T15:09:57.649Z,100684.66
2023-02-08T15:12:47.837Z,100728.16
2023-02-08T15:15:39.351Z,100714.25
2023-02-08T15:18:30.699Z,100724.25
2023-02-08T15:21:20.238Z,100717.16
2023-02-08T15:24:35.863Z,100715.63
2023-02-08T15:27:25.757Z,100706.06
2023-02-08T15:30:26.634Z,100720.41
2023-02-08T15:33:21.050Z,100678.31
2023-02-08T15:36:16.250Z,100689.66
2023-02-08T15:39:29.265Z,100654.72
2023-02-08T15:42:21.717Z,100658.06
2023-02-08T15:45:24.215Z,100675.06
2023-02-08T15:48:12.537Z,100715.06
2023-02-08T15:51:00.991Z,100728.91
2023-02-08T15:53:50.491Z,100683.34
2023-02-08T15:56:42.446Z,100691.78
2023-02-08T15:59:32.737Z,100710.63
2023-02-08T16:02:31.547Z,100712.22
2023-02-08T16:05:22.011Z,100721.25
2023-02-08T16:08:20.686Z,100673.16
2023-02-08T16:11:14.494Z,100690.19
2023-02-08T16:14:04.036Z,100713.25
2023-02-08T16:16:54.567Z,100723.19
2023-02-08T16:19:51.251Z,100706.13
2023-02-08T16:22:37.378Z,100689.97
2023-02-08T16:25:43.279Z,100700.69
2023-02-08T16:28:32.426Z,100709.53
2023-02-08T16:31:26.828Z,100723.34
2023-02-08T16:34:22.704Z,100720.91
2023-02-08T16:37:28.772Z,100721.47
2023-02-08T16:41:12.450Z,100728.34
2023-02-08T16:44:22.033Z,100720.06
2023-02-08T16:47:35.230Z,100736.34
2023-02-08T16:50:24.125Z,100722.91
2023-02-08T16:53:12.319Z,100676.97
2023-02-08T16:56:00.043Z,100744.72
2023-02-08T16:58:46.389Z,100736.06
2023-02-08T17:01:33.321Z,100743.66
2023-02-08T17:04:19.693Z,100699.13
2023-02-08T17:07:06.344Z,100718.47
2023-02-08T17:09:52.909Z,100751.19
2023-02-08T17:12:39.385Z,100756.41
2023-02-08T17:15:26.192Z,100732.31
2023-02-08T17:18:13.490Z,100759.06
2023-02-08T17:21:01.538Z,100713.25
2023-02-08T17:23:48.443Z,100737.66
2023-02-08T17:26:39.472Z,100752.22
2023-02-08T17:29:25.825Z,100731.56
2023-02-08T17:32:12.024Z,100730.59
2023-02-08T17:35:00.530Z,100728.66
2023-02-08T17:37:49.526Z,100733.53
2023-02-08T17:40:36.663Z,100771.75
2023-02-08T17:43:23.273Z,100734.66
2023-02-08T17:46:17.894Z,100722.59
2023-02-08T17:49:04.769Z,100727.38
2023-02-08T17:51:51.567Z,100693.34
2023-02-08T17:54:38.331Z,100731.53
2023-02-08T17:57:24.900Z,100738.50
2023-02-08T18:00:21.116Z,100763.38
2023-02-08T18:03:07.356Z,100736.06
2023-02-08T18:05:58.242Z,100730.88
2023-02-08T18:08:45.519Z,100774.38
2023-02-08T18:11:31.856Z,100781.69
2023-02-08T18:14:18.849Z,100746.34
2023-02-08T18:17:05.414Z,100764.91
2023-02-08T18:19:52.297Z,100734.94
2023-02-08T18:22:38.801Z,100769.09
2023-02-08T18:25:25.148Z,100755.72
2023-02-08T18:28:14.596Z,100733.97
2023-02-08T18:31:06.474Z,100751.13
2023-02-08T18:33:53.069Z,100709.06
2023-02-08T18:36:39.586Z,100756.44
2023-02-08T18:39:26.323Z,100753.63
2023-02-08T18:42:12.755Z,100729.41
2023-02-08T18:44:59.424Z,100733.34
2023-02-08T18:47:46.042Z,100758.41
2023-02-08T18:50:32.705Z,100766.44
2023-02-08T18:53:18.990Z,100765.63
2023-02-08T18:56:07.366Z,100738.06
2023-02-08T18:58:55.313Z,100756.50
2023-02-08T19:01:41.871Z,100723.78
2023-02-08T19:04:28.633Z,100723.22
2023-02-08T19:07:15.003Z,100741.97
2023-02-08T19:10:02.138Z,100762.84
2023-02-08T19:12:48.476Z,100730.19
2023-02-08T19:15:37.175Z,100698.50
2023-02-08T19:18:23.404Z,100753.72
2023-02-08T19:21:12.267Z,100765.63
2023-02-08T19:24:00.644Z,100769.34
2023-02-08T19:26:47.434Z,100768.38
2023-02-08T19:29:34.645Z,100758.31
2023-02-08T19:32:21.216Z,100714.84
2023-02-08T19:35:07.920Z,100746.72
2023-02-08T19:37:54.424Z,100731.53
2023-02-08T19:40:40.793Z,100785.41
2023-02-08T19:43:27.769Z,100758.25
2023-02-08T19:46:20.082Z,100769.94
2023-02-08T19:49:07.151Z,100770.81
2023-02-08T19:51:54.351Z,100739.84
2023-02-08T19:54:40.669Z,100765.50
2023-02-08T19:57:27.149Z,100733.63
2023-02-08T20:00:22.948Z,100709.13
2023-02-08T20:03:21.148Z,100731.34
2023-02-08T20:06:18.969Z,100773.59
2023-02-08T20:09:06.837Z,100766.78
2023-02-08T20:11:57.707Z,100744.53
2023-02-08T20:14:44.607Z,100749.94
2023-02-08T20:17:31.032Z,100721.41
2023-02-08T20:20:17.625Z,100710.41
2023-02-08T20:23:21.773Z,100732.88
2023-02-08T20:26:16.449Z,100752.84
2023-02-08T20:29:04.190Z,100688.28
2023-02-08T20:31:55.811Z,100755.91
2023-02-08T20:34:53.992Z,100755.38
2023-02-08T20:37:45.325Z,100759.22
2023-02-08T20:40:32.382Z,100752.91
2023-02-08T20:43:18.843Z,100705.84
2023-02-08T20:46:06.949Z,100763.78
2023-02-08T20:48:56.230Z,100759.25
2023-02-08T20:51:43.320Z,100722.56
2023-02-08T20:54:29.618Z,100698.25
2023-02-08T20:57:17.934Z,100746.31
2023-02-08T21:00:05.451Z,100767.56
2023-02-08T21:02:51.872Z,100743.53
2023-02-08T21:05:38.125Z,100733.41
2023-02-08T21:08:24.404Z,100725.19
2023-02-08T21:11:11.669Z,100769.06
2023-02-08T21:13:58.957Z,100760.22
2023-02-08T21:16:48.327Z,100754.88
2023-02-08T21:19:34.870Z,100738.81
2023-02-08T21:22:21.036Z,100719.72
2023-02-08T21:25:07.778Z,100751.06
2023-02-08T21:27:54.128Z,100703.16
2023-02-08T21:30:40.865Z,100741.69
2023-02-08T21:33:28.408Z,100759.41
2023-02-08T21:36:18.528Z,100758.00
2023-02-08T21:39:05.205Z,100732.03
2023-02-08T21:41:52.104Z,100700.31
2023-02-08T21:44:38.472Z,100747.78
2023-02-08T21:47:24.819Z,100744.38
2023-02-08T21:50:30.084Z,100727.94
2023-02-08T21:53:35.396Z,100707.31
2023-02-08T21:56:21.631Z,100752.81
2023-02-08T21:59:08.274Z,100746.84
2023-02-08T22:01:55.235Z,100715.31
2023-02-08T22:04:46.475Z,100704.94
2023-02-08T22:07:45.215Z,100739.84
2023-02-08T22:10:33.168Z,100731.63
2023-02-08T22:13:19.675Z,100721.91
2023-02-08T22:16:09.594Z,100717.06
2023-02-08T22:18:56.233Z,100697.38
2023-02-08T22:21:42.492Z,100726.72
2023-02-08T22:24:29.361Z,100730.75
2023-02-08T22:27:15.723Z,100722.16
2023-02-08T22:30:02.114Z,100721.13
2023-02-08T22:32:49.210Z,100720.75
2023-02-08T22:35:35.601Z,100707.19
2023-02-08T22:38:22.564Z,100698.53
2023-02-08T22:41:11.010Z,100722.94
2023-02-08T22:43:57.682Z,100732.06
2023-02-08T22:46:43.984Z,100714.44
2023-02-08T22:49:30.617Z,100720.44
2023-02-08T22:52:17.822Z,100679.91
2023-02-08T22:55:07.995Z,100721.31
2023-02-08T22:57:54.492Z,100688.50
2023-02-08T23:00:43.667Z,100680.53
2023-02-08T23:03:30.245Z,100691.69
2023-02-08T23:06:17.377Z,100713.78
2023-02-08T23:09:05.813Z,100707.03
2023-02-08T23:11:52.595Z,100709.78
2023-02-08T23:14:38.981Z,100701.00
2023-02-08T23:17:25.282Z,100661.06
2023-02-08T23:20:11.751Z,100661.94
2023-02-08T23:22:58.209Z,100686.28
2023-02-08T23:25:44.625Z,100673.66
2023-02-08T23:28:30.950Z,100683.53
2023-02-08T23:31:18.031Z,100683.63
2023-02-08T23:34:04.305Z,100708.75
2023-02-08T23:36:50.689Z,100655.59
2023-02-08T23:39:36.833Z,100712.94
2023-02-08T23:42:26.338Z,100713.94
2023-02-08T23:45:12.966Z,100678.56
2023-02-08T23:47:59.628Z,100690.69
2023-02-08T23:50:46.471Z,100704.88
2023-02-08T23:53:33.307Z,100681.38
2023-02-08T23:56:22.038Z,100682.66
2023-02-08T23:59:10.808Z,100658.91
